sensor_id;sensor_type;location;lat;lon;timestamp;temperature;humidity
39079;DHT22;24829;49.208;12.080;2023-07-31T00:00:38;15.50;99.90
39079;DHT22;24829;49.208;12.080;2023-07-31T00:03:04;15.50;99.90
39079;DHT22;24829;49.208;12.080;2023-07-31T00:05:29;15.40;99.90
39079;DHT22;24829;49.208;12.080;2023-07-31T00:07:55;15.40;99.90
39079;DHT22;24829;49.208;12.080;2023-07-31T00:10:20;15.40;99.90
39079;DHT22;24829;49.208;12.080;2023-07-31T00:12:46;15.30;99.90
39079;DHT22;24829;49.208;12.080;2023-07-31T00:15:13;15.30;99.90
39079;DHT22;24829;49.208;12.080;2023-07-31T00:17:39;15.30;99.90
39079;DHT22;24829;49.208;12.080;2023-07-31T00:20:05;15.20;99.90
39079;DHT22;24829;49.208;12.080;2023-07-31T00:22:31;15.20;99.90
39079;DHT22;24829;49.208;12.080;2023-07-31T00:24:57;15.20;99.90
39079;DHT22;24829;49.208;12.080;2023-07-31T00:27:23;15.10;99.90
39079;DHT22;24829;49.208;12.080;2023-07-31T00:29:48;15.10;99.90
39079;DHT22;24829;49.208;12.080;2023-07-31T00:32:14;15.10;99.90
39079;DHT22;24829;49.208;12.080;2023-07-31T00:34:39;15.10;99.90
39079;DHT22;24829;49.208;12.080;2023-07-31T00:37:05;15.10;99.90
39079;DHT22;24829;49.208;12.080;2023-07-31T00:39:31;15.00;99.90
39079;DHT22;24829;49.208;12.080;2023-07-31T00:41:57;15.00;99.90
39079;DHT22;24829;49.208;12.080;2023-07-31T00:44:22;15.00;99.90
39079;DHT22;24829;49.208;12.080;2023-07-31T00:46:48;15.00;99.90
39079;DHT22;24829;49.208;12.080;2023-07-31T00:49:15;15.00;99.90
39079;DHT22;24829;49.208;12.080;2023-07-31T00:51:41;15.00;99.90
39079;DHT22;24829;49.208;12.080;2023-07-31T00:54:07;14.90;99.90
39079;DHT22;24829;49.208;12.080;2023-07-31T00:56:33;14.90;99.90
39079;DHT22;24829;49.208;12.080;2023-07-31T00:58:59;14.90;99.90
39079;DHT22;24829;49.208;12.080;2023-07-31T01:01:24;14.90;99.90
39079;DHT22;24829;49.208;12.080;2023-07-31T01:03:50;14.80;99.90
39079;DHT22;24829;49.208;12.080;2023-07-31T01:09:08;14.70;99.90
39079;DHT22;24829;49.208;12.080;2023-07-31T01:11:44;14.70;99.90
39079;DHT22;24829;49.208;12.080;2023-07-31T01:14:11;14.70;99.90
39079;DHT22;24829;49.208;12.080;2023-07-31T01:16:36;14.70;99.90
39079;DHT22;24829;49.208;12.080;2023-07-31T01:19:02;14.70;99.90
39079;DHT22;24829;49.208;12.080;2023-07-31T01:24:30;14.70;99.90
39079;DHT22;24829;49.208;12.080;2023-07-31T01:27:13;14.70;99.90
39079;DHT22;24829;49.208;12.080;2023-07-31T01:32:36;14.70;99.90
39079;DHT22;24829;49.208;12.080;2023-07-31T01:35:04;14.80;99.90
39079;DHT22;24829;49.208;12.080;2023-07-31T01:37:30;14.80;99.90
39079;DHT22;24829;49.208;12.080;2023-07-31T01:39:55;14.90;99.90
39079;DHT22;24829;49.208;12.080;2023-07-31T01:42:21;14.90;99.90
39079;DHT22;24829;49.208;12.080;2023-07-31T01:44:47;14.90;99.90
39079;DHT22;24829;49.208;12.080;2023-07-31T01:47:12;14.80;99.90
39079;DHT22;24829;49.208;12.080;2023-07-31T01:49:38;14.80;99.90
39079;DHT22;24829;49.208;12.080;2023-07-31T01:52:04;14.80;99.90
39079;DHT22;24829;49.208;12.080;2023-07-31T01:54:29;14.80;99.90
39079;DHT22;24829;49.208;12.080;2023-07-31T01:56:55;14.70;99.90
39079;DHT22;24829;49.208;12.080;2023-07-31T01:59:21;14.60;99.90
39079;DHT22;24829;49.208;12.080;2023-07-31T02:01:46;14.60;99.90
39079;DHT22;24829;49.208;12.080;2023-07-31T02:04:12;14.60;99.90
39079;DHT22;24829;49.208;12.080;2023-07-31T02:06:38;14.50;99.90
39079;DHT22;24829;49.208;12.080;2023-07-31T02:09:04;14.50;99.90
39079;DHT22;24829;49.208;12.080;2023-07-31T02:11:29;14.40;99.90
39079;DHT22;24829;49.208;12.080;2023-07-31T02:13:55;14.30;99.90
39079;DHT22;24829;49.208;12.080;2023-07-31T02:16:20;14.30;99.90
39079;DHT22;24829;49.208;12.080;2023-07-31T02:18:46;14.30;99.90
39079;DHT22;24829;49.208;12.080;2023-07-31T02:21:11;14.20;99.90
39079;DHT22;24829;49.208;12.080;2023-07-31T02:23:37;14.20;99.90
39079;DHT22;24829;49.208;12.080;2023-07-31T02:26:02;14.20;99.90
39079;DHT22;24829;49.208;12.080;2023-07-31T02:28:29;14.10;99.90
39079;DHT22;24829;49.208;12.080;2023-07-31T02:30:55;14.10;99.90
39079;DHT22;24829;49.208;12.080;2023-07-31T02:33:20;14.00;99.90
39079;DHT22;24829;49.208;12.080;2023-07-31T02:35:46;14.00;99.90
39079;DHT22;24829;49.208;12.080;2023-07-31T02:38:11;14.00;99.90
39079;DHT22;24829;49.208;12.080;2023-07-31T02:40:37;14.00;99.90
39079;DHT22;24829;49.208;12.080;2023-07-31T02:43:04;14.00;99.90
39079;DHT22;24829;49.208;12.080;2023-07-31T02:45:29;14.00;99.90
39079;DHT22;24829;49.208;12.080;2023-07-31T02:47:55;14.00;99.90
39079;DHT22;24829;49.208;12.080;2023-07-31T02:50:20;14.00;99.90
39079;DHT22;24829;49.208;12.080;2023-07-31T02:52:46;14.00;99.90
39079;DHT22;24829;49.208;12.080;2023-07-31T02:55:11;14.00;99.90
39079;DHT22;24829;49.208;12.080;2023-07-31T02:57:37;13.90;99.90
39079;DHT22;24829;49.208;12.080;2023-07-31T03:00:03;13.90;99.90
39079;DHT22;24829;49.208;12.080;2023-07-31T03:02:31;13.90;99.90
39079;DHT22;24829;49.208;12.080;2023-07-31T03:04:57;13.80;99.90
39079;DHT22;24829;49.208;12.080;2023-07-31T03:07:22;13.90;99.90
39079;DHT22;24829;49.208;12.080;2023-07-31T03:09:48;13.80;99.90
39079;DHT22;24829;49.208;12.080;2023-07-31T03:12:13;13.90;99.90
39079;DHT22;24829;49.208;12.080;2023-07-31T03:14:39;13.80;99.90
39079;DHT22;24829;49.208;12.080;2023-07-31T03:17:05;13.90;99.90
39079;DHT22;24829;49.208;12.080;2023-07-31T03:19:31;13.90;99.90
39079;DHT22;24829;49.208;12.080;2023-07-31T03:21:58;13.90;99.90
39079;DHT22;24829;49.208;12.080;2023-07-31T03:24:23;13.90;99.90
39079;DHT22;24829;49.208;12.080;2023-07-31T03:26:49;13.80;99.90
39079;DHT22;24829;49.208;12.080;2023-07-31T03:29:14;13.80;99.90
39079;DHT22;24829;49.208;12.080;2023-07-31T03:31:40;13.90;99.90
39079;DHT22;24829;49.208;12.080;2023-07-31T03:34:05;13.90;99.90
39079;DHT22;24829;49.208;12.080;2023-07-31T03:36:31;13.90;99.90
39079;DHT22;24829;49.208;12.080;2023-07-31T03:38:57;13.80;99.90
39079;DHT22;24829;49.208;12.080;2023-07-31T03:41:22;13.80;99.90
39079;DHT22;24829;49.208;12.080;2023-07-31T03:43:49;13.80;99.90
39079;DHT22;24829;49.208;12.080;2023-07-31T03:46:17;13.80;99.90
39079;DHT22;24829;49.208;12.080;2023-07-31T03:48:42;13.80;99.90
39079;DHT22;24829;49.208;12.080;2023-07-31T03:51:08;13.80;99.90
39079;DHT22;24829;49.208;12.080;2023-07-31T03:53:34;13.80;99.90
39079;DHT22;24829;49.208;12.080;2023-07-31T03:55:59;13.80;99.90
39079;DHT22;24829;49.208;12.080;2023-07-31T03:58:25;13.90;99.90
39079;DHT22;24829;49.208;12.080;2023-07-31T04:00:50;13.90;99.90
39079;DHT22;24829;49.208;12.080;2023-07-31T04:03:16;13.90;99.90
39079;DHT22;24829;49.208;12.080;2023-07-31T04:05:41;13.80;99.90
39079;DHT22;24829;49.208;12.080;2023-07-31T04:08:07;13.80;99.90
39079;DHT22;24829;49.208;12.080;2023-07-31T04:10:32;13.80;99.90
39079;DHT22;24829;49.208;12.080;2023-07-31T04:12:59;13.80;99.90
39079;DHT22;24829;49.208;12.080;2023-07-31T04:15:26;13.80;99.90
39079;DHT22;24829;49.208;12.080;2023-07-31T04:17:51;13.80;99.90
39079;DHT22;24829;49.208;12.080;2023-07-31T04:20:17;13.90;99.90
39079;DHT22;24829;49.208;12.080;2023-07-31T04:22:42;13.90;99.90
39079;DHT22;24829;49.208;12.080;2023-07-31T04:25:08;13.90;99.90
39079;DHT22;24829;49.208;12.080;2023-07-31T04:27:34;13.90;99.90
39079;DHT22;24829;49.208;12.080;2023-07-31T04:29:59;14.00;99.90
39079;DHT22;24829;49.208;12.080;2023-07-31T04:32:25;14.00;99.90
39079;DHT22;24829;49.208;12.080;2023-07-31T04:34:50;14.00;99.90
39079;DHT22;24829;49.208;12.080;2023-07-31T04:37:16;14.10;99.90
39079;DHT22;24829;49.208;12.080;2023-07-31T04:39:42;14.20;99.90
39079;DHT22;24829;49.208;12.080;2023-07-31T04:42:07;14.20;99.90
39079;DHT22;24829;49.208;12.080;2023-07-31T04:44:33;14.20;99.90
39079;DHT22;24829;49.208;12.080;2023-07-31T04:46:58;14.30;99.90
39079;DHT22;24829;49.208;12.080;2023-07-31T04:49:24;14.30;99.90
39079;DHT22;24829;49.208;12.080;2023-07-31T04:51:50;14.40;99.90
39079;DHT22;24829;49.208;12.080;2023-07-31T04:54:15;14.40;99.90
39079;DHT22;24829;49.208;12.080;2023-07-31T04:56:41;14.40;99.90
39079;DHT22;24829;49.208;12.080;2023-07-31T04:59:07;14.60;99.90
39079;DHT22;24829;49.208;12.080;2023-07-31T05:01:32;14.90;99.90
39079;DHT22;24829;49.208;12.080;2023-07-31T05:03:58;15.50;99.90
39079;DHT22;24829;49.208;12.080;2023-07-31T05:06:23;16.20;99.90
39079;DHT22;24829;49.208;12.080;2023-07-31T05:08:49;16.70;99.90
39079;DHT22;24829;49.208;12.080;2023-07-31T05:11:15;16.90;99.90
39079;DHT22;24829;49.208;12.080;2023-07-31T05:13:41;17.00;99.90
39079;DHT22;24829;49.208;12.080;2023-07-31T05:16:06;17.00;99.90
39079;DHT22;24829;49.208;12.080;2023-07-31T05:18:32;17.30;99.90
39079;DHT22;24829;49.208;12.080;2023-07-31T05:20:57;17.40;99.90
39079;DHT22;24829;49.208;12.080;2023-07-31T05:23:23;17.30;99.90
39079;DHT22;24829;49.208;12.080;2023-07-31T05:25:48;17.40;99.90
39079;DHT22;24829;49.208;12.080;2023-07-31T05:28:14;17.60;99.90
39079;DHT22;24829;49.208;12.080;2023-07-31T05:30:39;18.00;99.90
39079;DHT22;24829;49.208;12.080;2023-07-31T05:33:05;18.30;99.90
39079;DHT22;24829;49.208;12.080;2023-07-31T05:35:30;18.60;99.90
39079;DHT22;24829;49.208;12.080;2023-07-31T05:37:56;18.90;99.90
39079;DHT22;24829;49.208;12.080;2023-07-31T05:40:22;19.10;99.90
39079;DHT22;24829;49.208;12.080;2023-07-31T05:42:47;18.80;99.90
39079;DHT22;24829;49.208;12.080;2023-07-31T05:45:13;18.30;99.90
39079;DHT22;24829;49.208;12.080;2023-07-31T05:47:39;18.00;99.90
39079;DHT22;24829;49.208;12.080;2023-07-31T05:50:05;17.90;99.90
39079;DHT22;24829;49.208;12.080;2023-07-31T05:52:30;18.00;99.90
39079;DHT22;24829;49.208;12.080;2023-07-31T05:54:56;18.50;99.90
39079;DHT22;24829;49.208;12.080;2023-07-31T05:57:22;18.80;99.90
39079;DHT22;24829;49.208;12.080;2023-07-31T05:59:47;19.10;99.90
39079;DHT22;24829;49.208;12.080;2023-07-31T06:02:13;19.10;99.90
39079;DHT22;24829;49.208;12.080;2023-07-31T06:04:38;19.30;99.90
39079;DHT22;24829;49.208;12.080;2023-07-31T06:07:04;19.50;99.90
39079;DHT22;24829;49.208;12.080;2023-07-31T06:09:30;19.60;99.90
39079;DHT22;24829;49.208;12.080;2023-07-31T06:11:56;19.60;99.90
39079;DHT22;24829;49.208;12.080;2023-07-31T06:14:22;19.60;99.90
39079;DHT22;24829;49.208;12.080;2023-07-31T06:16:47;19.70;99.90
39079;DHT22;24829;49.208;12.080;2023-07-31T06:19:13;19.70;99.90
39079;DHT22;24829;49.208;12.080;2023-07-31T06:21:39;19.80;99.90
39079;DHT22;24829;49.208;12.080;2023-07-31T06:24:05;19.80;99.90
39079;DHT22;24829;49.208;12.080;2023-07-31T06:26:31;19.70;99.90
39079;DHT22;24829;49.208;12.080;2023-07-31T06:28:56;19.60;99.90
39079;DHT22;24829;49.208;12.080;2023-07-31T06:31:22;19.70;99.90
39079;DHT22;24829;49.208;12.080;2023-07-31T06:33:51;19.80;99.90
39079;DHT22;24829;49.208;12.080;2023-07-31T06:36:18;19.80;99.90
39079;DHT22;24829;49.208;12.080;2023-07-31T06:38:43;19.90;99.90
39079;DHT22;24829;49.208;12.080;2023-07-31T06:41:09;20.00;99.90
39079;DHT22;24829;49.208;12.080;2023-07-31T06:43:36;20.00;99.90
39079;DHT22;24829;49.208;12.080;2023-07-31T06:46:06;20.00;99.90
39079;DHT22;24829;49.208;12.080;2023-07-31T06:48:32;19.80;99.90
39079;DHT22;24829;49.208;12.080;2023-07-31T06:50:58;19.60;99.90
39079;DHT22;24829;49.208;12.080;2023-07-31T06:53:23;19.50;99.90
39079;DHT22;24829;49.208;12.080;2023-07-31T06:55:49;19.50;99.90
39079;DHT22;24829;49.208;12.080;2023-07-31T06:58:17;19.80;99.90
39079;DHT22;24829;49.208;12.080;2023-07-31T07:00:42;20.00;99.90
39079;DHT22;24829;49.208;12.080;2023-07-31T07:03:08;20.20;99.90
39079;DHT22;24829;49.208;12.080;2023-07-31T07:05:34;20.40;99.90
39079;DHT22;24829;49.208;12.080;2023-07-31T07:08:00;20.50;99.90
39079;DHT22;24829;49.208;12.080;2023-07-31T07:12:54;20.50;99.90
39079;DHT22;24829;49.208;12.080;2023-07-31T07:15:20;20.50;99.90
39079;DHT22;24829;49.208;12.080;2023-07-31T07:17:46;20.60;99.90
39079;DHT22;24829;49.208;12.080;2023-07-31T07:20:12;20.60;99.90
39079;DHT22;24829;49.208;12.080;2023-07-31T07:22:37;20.50;99.90
39079;DHT22;24829;49.208;12.080;2023-07-31T07:25:04;20.50;99.90
39079;DHT22;24829;49.208;12.080;2023-07-31T07:27:30;20.70;99.90
39079;DHT22;24829;49.208;12.080;2023-07-31T07:29:55;20.90;99.90
39079;DHT22;24829;49.208;12.080;2023-07-31T07:32:21;21.10;99.90
39079;DHT22;24829;49.208;12.080;2023-07-31T07:34:48;21.20;99.90
39079;DHT22;24829;49.208;12.080;2023-07-31T07:37:13;21.50;99.90
39079;DHT22;24829;49.208;12.080;2023-07-31T07:39:39;21.70;99.90
39079;DHT22;24829;49.208;12.080;2023-07-31T07:42:05;21.90;99.90
39079;DHT22;24829;49.208;12.080;2023-07-31T07:44:30;22.10;99.90
39079;DHT22;24829;49.208;12.080;2023-07-31T07:46:56;22.20;99.90
39079;DHT22;24829;49.208;12.080;2023-07-31T07:49:21;22.20;99.90
39079;DHT22;24829;49.208;12.080;2023-07-31T07:51:48;22.20;99.90
39079;DHT22;24829;49.208;12.080;2023-07-31T07:54:14;22.40;99.90
39079;DHT22;24829;49.208;12.080;2023-07-31T07:56:40;22.40;99.90
39079;DHT22;24829;49.208;12.080;2023-07-31T07:59:05;22.70;99.90
39079;DHT22;24829;49.208;12.080;2023-07-31T08:01:31;22.90;99.90
39079;DHT22;24829;49.208;12.080;2023-07-31T08:03:57;23.20;99.90
39079;DHT22;24829;49.208;12.080;2023-07-31T08:06:23;23.30;99.90
39079;DHT22;24829;49.208;12.080;2023-07-31T08:08:49;23.50;99.90
39079;DHT22;24829;49.208;12.080;2023-07-31T08:11:15;23.60;99.90
39079;DHT22;24829;49.208;12.080;2023-07-31T08:13:40;23.30;99.90
39079;DHT22;24829;49.208;12.080;2023-07-31T08:16:06;23.10;99.90
39079;DHT22;24829;49.208;12.080;2023-07-31T08:18:32;23.10;99.90
39079;DHT22;24829;49.208;12.080;2023-07-31T08:20:58;22.90;99.90
39079;DHT22;24829;49.208;12.080;2023-07-31T08:23:24;22.80;99.90
39079;DHT22;24829;49.208;12.080;2023-07-31T08:25:49;22.60;99.90
39079;DHT22;24829;49.208;12.080;2023-07-31T08:28:16;22.40;99.90
39079;DHT22;24829;49.208;12.080;2023-07-31T08:30:42;22.20;99.90
39079;DHT22;24829;49.208;12.080;2023-07-31T08:33:07;22.10;99.90
39079;DHT22;24829;49.208;12.080;2023-07-31T08:35:33;22.10;99.90
39079;DHT22;24829;49.208;12.080;2023-07-31T08:37:59;22.00;99.90
39079;DHT22;24829;49.208;12.080;2023-07-31T08:40:25;21.90;99.90
39079;DHT22;24829;49.208;12.080;2023-07-31T08:42:53;21.90;99.90
39079;DHT22;24829;49.208;12.080;2023-07-31T08:45:20;21.80;99.90
39079;DHT22;24829;49.208;12.080;2023-07-31T08:47:47;21.80;99.90
39079;DHT22;24829;49.208;12.080;2023-07-31T08:50:15;21.60;99.90
39079;DHT22;24829;49.208;12.080;2023-07-31T08:52:41;21.50;99.90
39079;DHT22;24829;49.208;12.080;2023-07-31T08:55:07;21.50;99.90
39079;DHT22;24829;49.208;12.080;2023-07-31T08:57:35;21.40;99.90
39079;DHT22;24829;49.208;12.080;2023-07-31T09:00:02;21.60;99.90
39079;DHT22;24829;49.208;12.080;2023-07-31T09:02:54;21.60;99.90
39079;DHT22;24829;49.208;12.080;2023-07-31T09:05:19;21.70;99.90
39079;DHT22;24829;49.208;12.080;2023-07-31T09:07:47;21.70;99.90
39079;DHT22;24829;49.208;12.080;2023-07-31T09:10:13;21.80;99.90
39079;DHT22;24829;49.208;12.080;2023-07-31T09:12:39;21.80;99.90
39079;DHT22;24829;49.208;12.080;2023-07-31T09:15:05;21.90;99.90
39079;DHT22;24829;49.208;12.080;2023-07-31T09:17:32;22.00;99.90
39079;DHT22;24829;49.208;12.080;2023-07-31T09:20:12;22.10;99.90
39079;DHT22;24829;49.208;12.080;2023-07-31T09:22:39;22.20;99.90
39079;DHT22;24829;49.208;12.080;2023-07-31T09:30:12;22.80;99.90
39079;DHT22;24829;49.208;12.080;2023-07-31T09:32:38;22.80;99.90
39079;DHT22;24829;49.208;12.080;2023-07-31T09:35:27;22.90;99.90
39079;DHT22;24829;49.208;12.080;2023-07-31T09:37:57;23.10;99.90
39079;DHT22;24829;49.208;12.080;2023-07-31T09:40:34;23.10;99.90
39079;DHT22;24829;49.208;12.080;2023-07-31T09:43:01;23.10;99.90
39079;DHT22;24829;49.208;12.080;2023-07-31T09:45:28;23.00;99.90
39079;DHT22;24829;49.208;12.080;2023-07-31T09:47:54;23.00;99.90
39079;DHT22;24829;49.208;12.080;2023-07-31T09:50:21;22.90;99.90
39079;DHT22;24829;49.208;12.080;2023-07-31T09:52:47;22.90;99.90
39079;DHT22;24829;49.208;12.080;2023-07-31T09:55:13;22.80;99.90
39079;DHT22;24829;49.208;12.080;2023-07-31T09:57:47;23.00;99.90
39079;DHT22;24829;49.208;12.080;2023-07-31T10:00:17;23.30;99.90
39079;DHT22;24829;49.208;12.080;2023-07-31T10:02:46;23.50;99.90
39079;DHT22;24829;49.208;12.080;2023-07-31T10:05:14;23.70;99.90
39079;DHT22;24829;49.208;12.080;2023-07-31T10:07:42;23.90;99.90
39079;DHT22;24829;49.208;12.080;2023-07-31T10:10:11;24.10;99.90
39079;DHT22;24829;49.208;12.080;2023-07-31T10:12:38;24.10;99.60
39079;DHT22;24829;49.208;12.080;2023-07-31T10:15:04;24.30;98.90
39079;DHT22;24829;49.208;12.080;2023-07-31T10:17:31;24.50;98.90
39079;DHT22;24829;49.208;12.080;2023-07-31T10:20:02;24.70;99.20
39079;DHT22;24829;49.208;12.080;2023-07-31T10:22:30;24.70;98.40
39079;DHT22;24829;49.208;12.080;2023-07-31T10:24:58;24.60;98.00
39079;DHT22;24829;49.208;12.080;2023-07-31T10:27:24;24.40;97.50
39079;DHT22;24829;49.208;12.080;2023-07-31T10:29:50;24.40;98.50
39079;DHT22;24829;49.208;12.080;2023-07-31T10:32:17;24.60;98.00
39079;DHT22;24829;49.208;12.080;2023-07-31T10:34:44;24.70;97.30
39079;DHT22;24829;49.208;12.080;2023-07-31T10:40:02;24.00;98.10
39079;DHT22;24829;49.208;12.080;2023-07-31T10:42:38;23.70;98.20
39079;DHT22;24829;49.208;12.080;2023-07-31T10:45:09;23.50;98.50
39079;DHT22;24829;49.208;12.080;2023-07-31T10:47:45;23.30;98.10
39079;DHT22;24829;49.208;12.080;2023-07-31T10:50:21;23.20;98.70
39079;DHT22;24829;49.208;12.080;2023-07-31T10:52:51;23.10;99.10
39079;DHT22;24829;49.208;12.080;2023-07-31T10:55:38;23.00;98.90
39079;DHT22;24829;49.208;12.080;2023-07-31T10:58:12;22.90;99.00
39079;DHT22;24829;49.208;12.080;2023-07-31T11:00:40;22.80;99.90
39079;DHT22;24829;49.208;12.080;2023-07-31T11:05:48;22.90;99.80
39079;DHT22;24829;49.208;12.080;2023-07-31T11:08:18;23.00;99.00
39079;DHT22;24829;49.208;12.080;2023-07-31T11:10:45;23.00;99.70
39079;DHT22;24829;49.208;12.080;2023-07-31T11:13:11;22.90;99.30
39079;DHT22;24829;49.208;12.080;2023-07-31T11:15:37;23.00;99.80
39079;DHT22;24829;49.208;12.080;2023-07-31T11:18:03;23.10;99.60
39079;DHT22;24829;49.208;12.080;2023-07-31T11:20:34;23.20;99.50
39079;DHT22;24829;49.208;12.080;2023-07-31T11:23:06;23.20;99.60
39079;DHT22;24829;49.208;12.080;2023-07-31T11:25:33;23.30;99.50
39079;DHT22;24829;49.208;12.080;2023-07-31T11:28:12;23.30;99.10
39079;DHT22;24829;49.208;12.080;2023-07-31T11:30:38;23.30;99.30
39079;DHT22;24829;49.208;12.080;2023-07-31T11:33:06;23.60;98.70
39079;DHT22;24829;49.208;12.080;2023-07-31T11:35:34;23.80;99.00
39079;DHT22;24829;49.208;12.080;2023-07-31T11:38:00;24.00;98.60
39079;DHT22;24829;49.208;12.080;2023-07-31T11:40:27;24.10;97.70
39079;DHT22;24829;49.208;12.080;2023-07-31T11:43:04;24.40;98.00
39079;DHT22;24829;49.208;12.080;2023-07-31T11:45:31;24.70;97.00
39079;DHT22;24829;49.208;12.080;2023-07-31T11:47:58;24.90;96.60
39079;DHT22;24829;49.208;12.080;2023-07-31T11:50:24;25.20;97.20
39079;DHT22;24829;49.208;12.080;2023-07-31T11:52:59;25.30;95.70
39079;DHT22;24829;49.208;12.080;2023-07-31T11:55:26;25.10;95.40
39079;DHT22;24829;49.208;12.080;2023-07-31T11:57:52;24.90;95.90
39079;DHT22;24829;49.208;12.080;2023-07-31T12:00:19;24.50;96.30
39079;DHT22;24829;49.208;12.080;2023-07-31T12:02:45;24.20;96.90
39079;DHT22;24829;49.208;12.080;2023-07-31T12:05:12;24.10;97.00
39079;DHT22;24829;49.208;12.080;2023-07-31T12:07:50;24.00;96.80
39079;DHT22;24829;49.208;12.080;2023-07-31T12:10:42;24.10;97.50
39079;DHT22;24829;49.208;12.080;2023-07-31T12:13:11;24.30;96.20
39079;DHT22;24829;49.208;12.080;2023-07-31T12:15:45;24.40;96.60
39079;DHT22;24829;49.208;12.080;2023-07-31T12:18:13;24.50;96.50
39079;DHT22;24829;49.208;12.080;2023-07-31T12:20:53;24.50;96.60
39079;DHT22;24829;49.208;12.080;2023-07-31T12:25:44;24.90;95.50
39079;DHT22;24829;49.208;12.080;2023-07-31T12:28:10;24.90;95.60
39079;DHT22;24829;49.208;12.080;2023-07-31T12:30:40;24.70;95.60
39079;DHT22;24829;49.208;12.080;2023-07-31T12:33:15;24.60;96.10
39079;DHT22;24829;49.208;12.080;2023-07-31T12:35:43;24.60;96.30
39079;DHT22;24829;49.208;12.080;2023-07-31T12:38:09;24.70;96.10
39079;DHT22;24829;49.208;12.080;2023-07-31T12:40:37;24.70;95.60
39079;DHT22;24829;49.208;12.080;2023-07-31T12:43:03;24.60;95.30
39079;DHT22;24829;49.208;12.080;2023-07-31T12:45:30;24.50;95.60
39079;DHT22;24829;49.208;12.080;2023-07-31T12:47:56;24.50;95.80
39079;DHT22;24829;49.208;12.080;2023-07-31T12:50:22;24.50;95.80
39079;DHT22;24829;49.208;12.080;2023-07-31T12:52:49;24.50;95.70
39079;DHT22;24829;49.208;12.080;2023-07-31T12:55:14;24.40;95.90
39079;DHT22;24829;49.208;12.080;2023-07-31T12:57:40;24.40;96.10
39079;DHT22;24829;49.208;12.080;2023-07-31T13:00:07;24.40;96.50
39079;DHT22;24829;49.208;12.080;2023-07-31T13:02:33;24.40;95.90
39079;DHT22;24829;49.208;12.080;2023-07-31T13:04:58;24.50;96.00
39079;DHT22;24829;49.208;12.080;2023-07-31T13:07:24;24.50;95.80
39079;DHT22;24829;49.208;12.080;2023-07-31T13:09:51;24.50;95.90
39079;DHT22;24829;49.208;12.080;2023-07-31T13:12:16;24.40;95.50
39079;DHT22;24829;49.208;12.080;2023-07-31T13:14:42;24.30;95.70
39079;DHT22;24829;49.208;12.080;2023-07-31T13:17:07;24.20;96.00
39079;DHT22;24829;49.208;12.080;2023-07-31T13:19:33;24.10;96.40
39079;DHT22;24829;49.208;12.080;2023-07-31T13:21:58;24.20;96.80
39079;DHT22;24829;49.208;12.080;2023-07-31T13:24:24;24.30;96.80
39079;DHT22;24829;49.208;12.080;2023-07-31T13:26:49;24.30;95.80
39079;DHT22;24829;49.208;12.080;2023-07-31T13:29:15;24.40;95.90
39079;DHT22;24829;49.208;12.080;2023-07-31T13:31:41;24.60;96.60
39079;DHT22;24829;49.208;12.080;2023-07-31T13:34:06;24.70;95.00
39079;DHT22;24829;49.208;12.080;2023-07-31T13:36:32;24.90;94.80
39079;DHT22;24829;49.208;12.080;2023-07-31T13:38:59;25.00;95.20
39079;DHT22;24829;49.208;12.080;2023-07-31T13:41:25;25.10;93.90
39079;DHT22;24829;49.208;12.080;2023-07-31T13:43:50;25.10;94.20
39079;DHT22;24829;49.208;12.080;2023-07-31T13:46:16;25.00;94.10
39079;DHT22;24829;49.208;12.080;2023-07-31T13:48:41;24.90;94.20
39079;DHT22;24829;49.208;12.080;2023-07-31T13:51:07;24.80;94.40
39079;DHT22;24829;49.208;12.080;2023-07-31T13:53:32;24.80;94.60
39079;DHT22;24829;49.208;12.080;2023-07-31T13:55:58;24.80;94.20
39079;DHT22;24829;49.208;12.080;2023-07-31T13:58:23;24.80;94.60
39079;DHT22;24829;49.208;12.080;2023-07-31T14:00:49;24.70;94.50
39079;DHT22;24829;49.208;12.080;2023-07-31T14:03:15;24.70;95.20
39079;DHT22;24829;49.208;12.080;2023-07-31T14:05:40;24.80;95.30
39079;DHT22;24829;49.208;12.080;2023-07-31T14:08:06;24.90;94.80
39079;DHT22;24829;49.208;12.080;2023-07-31T14:10:31;24.90;94.40
39079;DHT22;24829;49.208;12.080;2023-07-31T14:12:57;24.70;94.40
39079;DHT22;24829;49.208;12.080;2023-07-31T14:15:22;24.70;94.90
39079;DHT22;24829;49.208;12.080;2023-07-31T14:17:48;24.60;95.50
39079;DHT22;24829;49.208;12.080;2023-07-31T14:20:13;24.50;95.10
39079;DHT22;24829;49.208;12.080;2023-07-31T14:22:39;24.30;95.60
39079;DHT22;24829;49.208;12.080;2023-07-31T14:25:05;24.20;95.60
39079;DHT22;24829;49.208;12.080;2023-07-31T14:27:31;24.10;96.20
39079;DHT22;24829;49.208;12.080;2023-07-31T14:29:56;24.10;95.90
39079;DHT22;24829;49.208;12.080;2023-07-31T14:32:22;24.10;95.90
39079;DHT22;24829;49.208;12.080;2023-07-31T14:34:50;24.10;96.20
39079;DHT22;24829;49.208;12.080;2023-07-31T14:37:16;24.20;96.30
39079;DHT22;24829;49.208;12.080;2023-07-31T14:39:41;24.20;96.30
39079;DHT22;24829;49.208;12.080;2023-07-31T14:42:08;24.30;96.20
39079;DHT22;24829;49.208;12.080;2023-07-31T14:44:34;24.50;96.00
39079;DHT22;24829;49.208;12.080;2023-07-31T14:46:59;24.50;95.80
39079;DHT22;24829;49.208;12.080;2023-07-31T14:49:25;24.50;96.10
39079;DHT22;24829;49.208;12.080;2023-07-31T14:51:52;24.50;96.10
39079;DHT22;24829;49.208;12.080;2023-07-31T14:54:18;24.50;95.90
39079;DHT22;24829;49.208;12.080;2023-07-31T14:56:43;24.40;96.20
39079;DHT22;24829;49.208;12.080;2023-07-31T14:59:09;24.30;96.10
39079;DHT22;24829;49.208;12.080;2023-07-31T15:01:35;24.30;96.60
39079;DHT22;24829;49.208;12.080;2023-07-31T15:04:00;24.30;96.70
39079;DHT22;24829;49.208;12.080;2023-07-31T15:06:26;24.30;96.40
39079;DHT22;24829;49.208;12.080;2023-07-31T15:08:51;24.30;96.20
39079;DHT22;24829;49.208;12.080;2023-07-31T15:11:17;24.30;95.70
39079;DHT22;24829;49.208;12.080;2023-07-31T15:13:43;24.30;96.00
39079;DHT22;24829;49.208;12.080;2023-07-31T15:16:09;24.30;96.00
39079;DHT22;24829;49.208;12.080;2023-07-31T15:18:34;24.20;96.50
39079;DHT22;24829;49.208;12.080;2023-07-31T15:21:00;24.30;96.40
39079;DHT22;24829;49.208;12.080;2023-07-31T15:23:26;24.30;95.80
39079;DHT22;24829;49.208;12.080;2023-07-31T15:25:52;24.30;95.60
39079;DHT22;24829;49.208;12.080;2023-07-31T15:28:19;24.20;95.80
39079;DHT22;24829;49.208;12.080;2023-07-31T15:30:44;24.30;95.70
39079;DHT22;24829;49.208;12.080;2023-07-31T15:33:10;24.30;95.80
39079;DHT22;24829;49.208;12.080;2023-07-31T15:35:36;24.40;95.80